createdAt,value
2019-05-02T00:02:28.908Z,97.60
2019-05-02T00:05:00.321Z,97.90
2019-05-02T00:07:30.621Z,97.80
2019-05-02T00:10:01.748Z,98.30
2019-05-02T00:12:32.822Z,98.30
2019-05-02T00:15:05.301Z,98.50
2019-05-02T00:17:35.901Z,98.40
2019-05-02T00:20:08.425Z,99.10
2019-05-02T00:22:38.864Z,98.80
2019-05-02T00:25:11.106Z,99.10
2019-05-02T00:27:42.013Z,99.00
2019-05-02T00:30:15.092Z,99.10
2019-05-02T00:32:45.402Z,99.00
2019-05-02T00:35:15.837Z,98.90
2019-05-02T00:37:46.138Z,99.00
2019-05-02T00:40:20.149Z,99.00
2019-05-02T00:42:48.385Z,99.00
2019-05-02T00:45:23.810Z,99.00
2019-05-02T00:48:02.953Z,98.90
2019-05-02T00:50:40.314Z,99.00
2019-05-02T00:53:11.993Z,99.00
2019-05-02T00:55:41.355Z,98.80
2019-05-02T00:58:11.661Z,98.90
2019-05-02T01:01:01.052Z,98.70
2019-05-02T01:03:33.230Z,98.80
2019-05-02T01:06:03.635Z,98.60
2019-05-02T01:08:35.715Z,98.60
2019-05-02T01:11:05.849Z,98.70
2019-05-02T01:13:36.152Z,98.70
2019-05-02T01:16:08.068Z,98.60
2019-05-02T01:18:41.299Z,98.40
2019-05-02T01:21:10.416Z,98.30
2019-05-02T01:23:40.866Z,98.10
2019-05-02T01:26:11.580Z,98.10
2019-05-02T01:29:02.150Z,98.20
2019-05-02T01:31:42.550Z,98.20
2019-05-02T01:34:31.895Z,98.20
2019-05-02T01:37:20.362Z,98.10
2019-05-02T01:39:43.958Z,98.20
2019-05-02T01:42:14.472Z,98.20
2019-05-02T01:44:44.796Z,98.30
2019-05-02T01:47:15.124Z,98.30
2019-05-02T01:49:45.434Z,98.30
2019-05-02T01:52:18.964Z,98.30
2019-05-02T01:54:47.782Z,98.40
2019-05-02T01:57:18.100Z,98.40
2019-05-02T01:59:48.429Z,98.50
2019-05-02T02:02:18.852Z,98.40
2019-05-02T02:04:52.209Z,98.20
2019-05-02T02:07:21.295Z,98.10
2019-05-02T02:09:51.773Z,98.30
2019-05-02T02:12:22.152Z,98.50
2019-05-02T02:14:53.352Z,98.50
2019-05-02T02:17:24.617Z,98.70
2019-05-02T02:19:58.197Z,98.80
2019-05-02T02:22:39.099Z,98.90
2019-05-02T02:25:26.758Z,99.10
2019-05-02T02:27:59.593Z,99.10
2019-05-02T02:30:29.082Z,99.40
2019-05-02T02:33:00.789Z,99.40
2019-05-02T02:35:31.482Z,99.50
2019-05-02T02:38:01.793Z,99.70
2019-05-02T02:40:33.681Z,99.80
2019-05-02T02:43:30.313Z,99.80
2019-05-02T02:45:57.792Z,99.50
2019-05-02T02:48:23.870Z,99.50
2019-05-02T02:50:54.206Z,99.60
2019-05-02T02:53:30.639Z,99.70
2019-05-02T02:56:03.879Z,99.60
2019-05-02T02:58:44.288Z,99.50
2019-05-02T03:01:06.345Z,99.50
2019-05-02T03:03:36.734Z,99.60
2019-05-02T03:06:08.301Z,99.50
2019-05-02T03:08:46.297Z,99.60
2019-05-02T03:11:22.737Z,99.50
2019-05-02T03:13:53.868Z,99.50
2019-05-02T03:16:26.682Z,99.60
2019-05-02T03:18:57.095Z,99.60
2019-05-02T03:21:27.408Z,99.60
2019-05-02T03:24:03.015Z,99.70
2019-05-02T03:26:29.853Z,99.90
2019-05-02T03:29:00.934Z,99.90
2019-05-02T03:31:31.693Z,99.90
2019-05-02T03:34:02.153Z,99.70
2019-05-02T03:36:36.355Z,99.60
2019-05-02T03:39:13.351Z,99.60
2019-05-02T03:41:39.878Z,99.50
2019-05-02T03:44:12.358Z,99.40
2019-05-02T03:46:42.881Z,99.30
2019-05-02T03:49:13.191Z,99.10
2019-05-02T03:51:43.498Z,99.70
2019-05-02T03:54:13.821Z,99.60
2019-05-02T03:56:44.862Z,99.60
2019-05-02T03:59:16.264Z,99.90
2019-05-02T04:01:46.601Z,99.90
2019-05-02T04:04:20.472Z,99.90
2019-05-02T04:06:55.060Z,99.90
2019-05-02T04:09:46.344Z,99.90
2019-05-02T04:12:19.263Z,99.90
2019-05-02T04:14:55.343Z,99.90
2019-05-02T04:17:21.775Z,99.90
2019-05-02T04:19:52.495Z,99.90
2019-05-02T04:22:23.302Z,99.90
2019-05-02T04:24:54.854Z,99.90
2019-05-02T04:27:27.773Z,99.90
2019-05-02T04:30:09.762Z,99.90
2019-05-02T04:32:30.337Z,99.90
2019-05-02T04:35:00.993Z,99.90
2019-05-02T04:37:34.394Z,99.90
2019-05-02T04:40:04.836Z,99.90
2019-05-02T04:42:35.349Z,99.90
2019-05-02T04:45:21.767Z,99.90
2019-05-02T04:47:39.056Z,99.90
2019-05-02T04:50:18.082Z,99.90
2019-05-02T04:52:48.352Z,99.90
2019-05-02T04:55:24.958Z,99.90
2019-05-02T04:57:50.434Z,99.90
2019-05-02T05:00:21.640Z,99.90
2019-05-02T05:02:53.267Z,99.90
2019-05-02T05:05:25.667Z,99.90
2019-05-02T05:07:58.475Z,99.90
2019-05-02T05:10:35.030Z,99.90
2019-05-02T05:12:59.869Z,99.90
2019-05-02T05:15:40.265Z,99.90
2019-05-02T05:18:04.497Z,99.90
2019-05-02T05:20:34.045Z,99.90
2019-05-02T05:23:04.449Z,99.90
2019-05-02T05:25:39.814Z,99.90
2019-05-02T05:28:10.137Z,99.90
2019-05-02T05:30:45.026Z,99.90
2019-05-02T05:33:12.518Z,99.90
2019-05-02T05:35:43.237Z,99.90
2019-05-02T05:38:14.879Z,99.90
2019-05-02T05:40:45.176Z,99.90
2019-05-02T05:43:18.320Z,99.90
2019-05-02T05:45:53.292Z,99.90
2019-05-02T05:48:19.367Z,99.90
2019-05-02T05:50:49.661Z,99.90
2019-05-02T05:53:21.427Z,99.90
2019-05-02T05:55:53.547Z,99.90
2019-05-02T05:58:23.864Z,99.90
2019-05-02T06:00:56.510Z,99.90
2019-05-02T06:03:27.825Z,99.90
2019-05-02T06:05:58.226Z,99.90
2019-05-02T06:08:29.617Z,99.90
2019-05-02T06:10:59.894Z,99.90
2019-05-02T06:13:30.202Z,99.90
2019-05-02T06:16:02.706Z,99.90
2019-05-02T06:18:36.506Z,99.90
2019-05-02T06:21:08.780Z,99.90
2019-05-02T06:23:41.213Z,99.90
2019-05-02T06:26:13.663Z,99.90
2019-05-02T06:28:41.654Z,99.90
2019-05-02T06:31:12.947Z,99.90
2019-05-02T06:33:43.377Z,99.90
2019-05-02T06:36:13.777Z,99.90
2019-05-02T06:38:44.084Z,99.90
2019-05-02T06:41:16.246Z,99.90
2019-05-02T06:43:48.220Z,99.90
2019-05-02T06:46:21.948Z,99.70
2019-05-02T06:48:52.317Z,99.90
2019-05-02T06:51:22.803Z,99.20
2019-05-02T06:53:53.230Z,98.80
2019-05-02T06:56:23.620Z,98.50
2019-05-02T06:58:54.050Z,98.80
2019-05-02T07:01:24.445Z,98.10
2019-05-02T07:03:54.840Z,98.10
2019-05-02T07:06:25.598Z,97.80
2019-05-02T07:08:59.313Z,97.70
2019-05-02T07:11:28.102Z,97.20
2019-05-02T07:14:12.130Z,96.90
2019-05-02T07:16:39.687Z,96.10
2019-05-02T07:19:21.860Z,95.60
2019-05-02T07:21:59.072Z,95.50
2019-05-02T07:24:30.620Z,95.50
2019-05-02T07:26:58.166Z,95.60
2019-05-02T07:29:30.000Z,95.50
2019-05-02T07:32:01.903Z,95.20
2019-05-02T07:34:33.575Z,95.20
2019-05-02T07:37:08.407Z,94.60
2019-05-02T07:39:36.140Z,94.50
2019-05-02T07:42:07.929Z,94.20
2019-05-02T07:44:38.938Z,94.10
2019-05-02T07:47:10.419Z,93.40
2019-05-02T07:49:41.586Z,93.60
2019-05-02T07:52:12.040Z,92.70
2019-05-02T07:54:42.454Z,92.90
2019-05-02T07:57:13.830Z,92.70
2019-05-02T07:59:45.041Z,93.30
2019-05-02T08:02:20.271Z,92.60
2019-05-02T08:04:50.671Z,92.20
2019-05-02T08:07:25.869Z,92.30
2019-05-02T08:09:57.181Z,92.00
2019-05-02T08:12:28.452Z,92.00
2019-05-02T08:15:00.393Z,92.30
2019-05-02T08:17:32.206Z,91.50
2019-05-02T08:20:05.692Z,91.60
2019-05-02T08:22:34.752Z,91.90
2019-05-02T08:25:10.422Z,91.20
2019-05-02T08:27:52.351Z,90.20
2019-05-02T08:30:35.443Z,90.40
2019-05-02T08:33:05.516Z,90.90
2019-05-02T08:35:36.493Z,90.70
2019-05-02T08:38:12.657Z,89.80
2019-05-02T08:40:47.898Z,88.40
2019-05-02T08:43:15.116Z,88.70
2019-05-02T08:45:45.538Z,88.50
2019-05-02T08:48:16.003Z,88.70
2019-05-02T08:50:46.357Z,86.90
2019-05-02T08:53:19.988Z,86.60
2019-05-02T08:55:48.737Z,85.90
2019-05-02T08:58:19.125Z,85.70
2019-05-02T09:00:49.758Z,86.20
2019-05-02T09:03:20.088Z,85.70
2019-05-02T09:05:51.633Z,85.10
2019-05-02T09:08:22.051Z,84.60
2019-05-02T09:10:52.694Z,81.90
2019-05-02T09:13:27.178Z,81.60
2019-05-02T09:15:57.278Z,81.20
2019-05-02T09:18:35.124Z,81.10
2019-05-02T09:20:59.657Z,81.80
2019-05-02T09:23:33.180Z,80.90
2019-05-02T09:26:03.078Z,80.30
2019-05-02T09:28:33.506Z,78.00
2019-05-02T09:31:06.693Z,78.80
2019-05-02T09:33:36.881Z,78.50
2019-05-02T09:36:08.418Z,76.60
2019-05-02T09:38:39.662Z,77.80
2019-05-02T09:41:16.888Z,76.60
2019-05-02T09:43:43.032Z,76.90
2019-05-02T09:46:16.560Z,77.40
2019-05-02T09:48:45.414Z,77.00
2019-05-02T09:51:17.352Z,75.90
2019-05-02T09:53:47.940Z,76.10
2019-05-02T09:56:18.270Z,75.70
2019-05-02T09:58:49.426Z,76.10
2019-05-02T10:01:26.406Z,76.70
2019-05-02T10:03:56.993Z,75.40
2019-05-02T10:06:27.305Z,75.10
2019-05-02T10:08:57.780Z,74.80
2019-05-02T10:11:28.293Z,74.70
2019-05-02T10:13:58.630Z,73.70
2019-05-02T10:16:31.889Z,76.00
2019-05-02T10:19:09.462Z,73.70
2019-05-02T10:21:37.059Z,72.60
2019-05-02T10:24:08.889Z,71.90
2019-05-02T10:26:39.432Z,71.80
2019-05-02T10:29:10.177Z,72.10
2019-05-02T10:31:42.183Z,74.20
2019-05-02T10:34:16.209Z,75.80
2019-05-02T10:36:45.491Z,74.60
2019-05-02T10:39:16.054Z,74.50
2019-05-02T10:41:46.489Z,74.80
2019-05-02T10:44:16.841Z,72.40
2019-05-02T10:46:55.523Z,72.70
2019-05-02T10:49:50.088Z,73.20
2019-05-02T10:52:21.548Z,74.50
2019-05-02T10:54:52.950Z,72.30
2019-05-02T10:57:23.470Z,73.00
2019-05-02T10:59:56.136Z,70.80
2019-05-02T11:02:45.213Z,71.80
2019-05-02T11:05:22.569Z,70.40
2019-05-02T11:07:52.280Z,72.60
2019-05-02T11:10:23.028Z,73.50
2019-05-02T11:13:02.678Z,72.20
2019-05-02T11:16:07.500Z,73.00
2019-05-02T11:18:54.719Z,74.10
2019-05-02T11:21:25.127Z,72.80
2019-05-02T11:23:55.660Z,73.00
2019-05-02T11:26:26.288Z,71.90
2019-05-02T11:28:56.656Z,71.90
2019-05-02T11:31:27.121Z,71.70
2019-05-02T11:33:57.494Z,72.50
2019-05-02T11:36:28.088Z,72.80
2019-05-02T11:39:05.455Z,72.60
2019-05-02T11:41:31.794Z,72.30
2019-05-02T11:44:02.969Z,72.20
2019-05-02T11:46:37.475Z,72.70
2019-05-02T11:49:05.593Z,71.70
2019-05-02T11:51:36.059Z,70.60
2019-05-02T11:54:09.303Z,71.80
2019-05-02T11:56:41.106Z,70.10
2019-05-02T11:59:14.643Z,71.20
2019-05-02T12:01:56.881Z,71.20
2019-05-02T12:04:17.498Z,69.40
2019-05-02T12:06:50.088Z,70.10
2019-05-02T12:09:22.214Z,70.50
2019-05-02T12:11:56.534Z,68.90
2019-05-02T12:14:27.549Z,68.50
2019-05-02T12:16:56.311Z,68.50
2019-05-02T12:19:26.939Z,69.50
2019-05-02T12:22:02.676Z,67.20
2019-05-02T12:24:36.360Z,67.10
2019-05-02T12:27:05.263Z,66.80
2019-05-02T12:29:35.637Z,66.10
2019-05-02T12:32:05.985Z,67.10
2019-05-02T12:34:36.393Z,65.20
2019-05-02T12:37:07.841Z,64.30
2019-05-02T12:39:39.142Z,64.10
2019-05-02T12:42:09.731Z,65.20
2019-05-02T12:44:42.611Z,65.00
2019-05-02T12:47:13.076Z,63.40
2019-05-02T12:49:43.394Z,64.30
2019-05-02T12:52:13.749Z,63.80
2019-05-02T12:54:44.134Z,62.40
2019-05-02T12:57:14.460Z,62.90
2019-05-02T12:59:44.772Z,61.40
2019-05-02T13:02:23.171Z,63.60
2019-05-02T13:04:53.488Z,62.00
2019-05-02T13:07:23.846Z,61.90
2019-05-02T13:09:54.162Z,62.10
2019-05-02T13:12:28.777Z,62.20
2019-05-02T13:14:59.114Z,61.50
2019-05-02T13:17:29.586Z,60.10
2019-05-02T13:20:01.490Z,57.70
2019-05-02T13:22:49.902Z,57.70
2019-05-02T13:25:22.578Z,59.00
2019-05-02T13:27:53.054Z,58.40
2019-05-02T13:30:42.654Z,58.50
2019-05-02T13:33:07.131Z,57.30
2019-05-02T13:35:43.698Z,55.50
2019-05-02T13:38:15.721Z,54.20
2019-05-02T13:40:46.565Z,52.50
2019-05-02T13:43:17.516Z,53.40
2019-05-02T13:46:02.365Z,52.70
2019-05-02T13:48:32.680Z,54.20
2019-05-02T13:51:03.954Z,54.50
2019-05-02T13:53:36.622Z,54.50
2019-05-02T13:56:39.741Z,55.20
2019-05-02T13:59:11.168Z,53.70
2019-05-02T14:01:42.438Z,53.70
2019-05-02T14:04:15.017Z,53.20
2019-05-02T14:06:44.820Z,52.00
2019-05-02T14:09:24.966Z,53.50
2019-05-02T14:12:01.946Z,53.60
2019-05-02T14:14:32.682Z,53.80
2019-05-02T14:17:03.442Z,51.90
2019-05-02T14:19:33.757Z,51.90
2019-05-02T14:22:05.804Z,51.50
2019-05-02T14:24:36.081Z,50.40
2019-05-02T14:27:07.173Z,51.50
2019-05-02T14:29:38.977Z,52.10
2019-05-02T14:32:20.445Z,52.20
2019-05-02T14:35:03.507Z,51.00
2019-05-02T14:37:33.901Z,52.40
2019-05-02T14:40:11.783Z,52.80
2019-05-02T14:42:42.254Z,53.60
2019-05-02T14:45:27.421Z,53.30
2019-05-02T14:47:44.669Z,53.00
2019-05-02T14:50:23.677Z,51.20
2019-05-02T14:52:47.120Z,50.70
2019-05-02T14:55:23.994Z,51.70
2019-05-02T14:57:49.629Z,51.20
2019-05-02T15:00:22.227Z,51.70
2019-05-02T15:02:52.642Z,52.20
2019-05-02T15:05:27.980Z,51.90
2019-05-02T15:07:56.963Z,52.50
2019-05-02T15:10:26.833Z,53.00
2019-05-02T15:12:59.649Z,51.50
2019-05-02T15:15:33.990Z,51.00
2019-05-02T15:18:02.748Z,50.20
2019-05-02T15:20:39.177Z,50.80
2019-05-02T15:23:07.173Z,50.00
2019-05-02T15:25:37.134Z,50.40
2019-05-02T15:28:12.928Z,50.70
2019-05-02T15:30:49.276Z,50.70
2019-05-02T15:33:17.061Z,51.30
2019-05-02T15:36:04.996Z,51.30
2019-05-02T15:38:32.179Z,51.00
2019-05-02T15:41:05.049Z,51.00
2019-05-02T15:43:33.994Z,50.60
2019-05-02T15:46:04.713Z,51.50
2019-05-02T15:48:35.023Z,51.20
2019-05-02T15:51:08.994Z,51.70
2019-05-02T15:54:05.410Z,51.30
2019-05-02T15:56:25.281Z,51.70
2019-05-02T15:58:58.066Z,50.80
2019-05-02T16:01:48.044Z,51.10
2019-05-02T16:04:24.162Z,51.20
2019-05-02T16:06:52.875Z,51.00
2019-05-02T16:09:23.518Z,51.10
2019-05-02T16:11:56.914Z,52.20
2019-05-02T16:14:34.156Z,51.60
2019-05-02T16:17:03.678Z,52.10
2019-05-02T16:19:36.793Z,51.50
2019-05-02T16:22:16.421Z,51.80
2019-05-02T16:24:48.830Z,51.90
2019-05-02T16:27:25.394Z,52.40
2019-05-02T16:29:58.189Z,52.50
2019-05-02T16:32:37.688Z,52.60
2019-05-02T16:35:15.381Z,52.90
2019-05-02T16:37:42.102Z,53.60
2019-05-02T16:40:13.536Z,53.80
2019-05-02T16:42:44.268Z,54.30
2019-05-02T16:45:16.423Z,53.10
2019-05-02T16:47:49.729Z,52.50
2019-05-02T16:50:19.478Z,52.50
2019-05-02T16:52:50.108Z,53.70
2019-05-02T16:55:24.841Z,52.10
2019-05-02T16:57:56.665Z,50.60
2019-05-02T17:00:25.893Z,51.00
2019-05-02T17:02:56.495Z,50.10
2019-05-02T17:05:27.428Z,50.80
2019-05-02T17:08:19.997Z,51.10
2019-05-02T17:10:57.067Z,51.40
2019-05-02T17:13:34.282Z,51.70
2019-05-02T17:16:07.001Z,52.00
2019-05-02T17:18:33.168Z,52.40
2019-05-02T17:21:04.365Z,52.40
2019-05-02T17:23:37.597Z,52.40
2019-05-02T17:26:06.220Z,52.10
2019-05-02T17:28:37.983Z,52.80
2019-05-02T17:31:10.740Z,52.70
2019-05-02T17:33:41.722Z,53.10
2019-05-02T17:36:12.434Z,53.80
2019-05-02T17:38:42.840Z,53.90
2019-05-02T17:41:15.513Z,54.60
2019-05-02T17:43:46.117Z,54.50
2019-05-02T17:46:25.712Z,54.70
2019-05-02T17:48:55.445Z,55.00
2019-05-02T17:51:40.263Z,54.90
2019-05-02T17:54:12.058Z,55.30
2019-05-02T17:56:42.750Z,55.50
2019-05-02T17:59:16.962Z,55.70
2019-05-02T18:01:47.288Z,56.20
2019-05-02T18:04:18.116Z,56.40
2019-05-02T18:06:55.132Z,56.60
2019-05-02T18:09:26.388Z,57.10
2019-05-02T18:11:58.756Z,57.70
2019-05-02T18:14:39.372Z,59.30
2019-05-02T18:17:12.710Z,61.90
2019-05-02T18:19:44.534Z,63.90
2019-05-02T18:22:23.369Z,66.00
2019-05-02T18:24:46.957Z,66.50
2019-05-02T18:27:17.487Z,68.10
2019-05-02T18:29:47.858Z,69.30
2019-05-02T18:32:24.504Z,71.00
2019-05-02T18:34:51.966Z,71.70
2019-05-02T18:37:22.125Z,72.90
2019-05-02T18:39:55.839Z,73.70
2019-05-02T18:42:25.597Z,74.30
2019-05-02T18:44:56.124Z,75.00
2019-05-02T18:47:27.040Z,76.40
2019-05-02T18:50:01.872Z,76.80
2019-05-02T18:52:36.323Z,76.70
2019-05-02T18:55:01.661Z,77.60
2019-05-02T18:57:32.076Z,78.70
2019-05-02T19:00:02.538Z,79.30
2019-05-02T19:02:35.670Z,79.50
2019-05-02T19:05:10.876Z,79.80
2019-05-02T19:07:38.698Z,80.40
2019-05-02T19:10:09.344Z,80.70
2019-05-02T19:12:39.710Z,81.20
2019-05-02T19:15:10.237Z,81.10
2019-05-02T19:17:43.111Z,81.50
2019-05-02T19:20:57.524Z,82.00
2019-05-02T19:23:27.349Z,82.10
2019-05-02T19:26:02.299Z,82.50
2019-05-02T19:29:08.411Z,82.40
2019-05-02T19:31:53.580Z,82.60
2019-05-02T19:34:26.791Z,83.40
2019-05-02T19:37:02.776Z,84.10
2019-05-02T19:39:29.849Z,84.70
2019-05-02T19:42:01.789Z,85.80
2019-05-02T19:44:34.212Z,88.70
2019-05-02T19:47:08.305Z,89.50
2019-05-02T19:49:36.396Z,90.30
2019-05-02T19:52:07.203Z,90.50
2019-05-02T19:54:43.660Z,91.00
2019-05-02T19:57:17.140Z,91.50
2019-05-02T19:59:46.774Z,92.40
2019-05-02T20:02:18.238Z,92.70
2019-05-02T20:04:52.016Z,92.20
2019-05-02T20:07:22.847Z,92.60
2019-05-02T20:09:53.266Z,92.60
2019-05-02T20:12:24.332Z,92.70
2019-05-02T20:14:54.726Z,92.50
2019-05-02T20:17:25.120Z,92.80
2019-05-02T20:20:02.363Z,92.90
2019-05-02T20:22:31.540Z,92.80
2019-05-02T20:25:03.760Z,93.20
2019-05-02T20:27:33.454Z,93.30
2019-05-02T20:30:03.997Z,93.20
2019-05-02T20:32:34.372Z,93.30
2019-05-02T20:35:05.256Z,93.60
2019-05-02T20:37:35.605Z,93.50
2019-05-02T20:40:06.449Z,93.40
2019-05-02T20:42:36.930Z,93.50
2019-05-02T20:45:07.420Z,93.60
2019-05-02T20:47:37.893Z,93.80
2019-05-02T20:50:08.389Z,94.00
2019-05-02T20:52:38.830Z,94.10
2019-05-02T20:55:09.226Z,93.90
2019-05-02T20:57:42.338Z,94.00
2019-05-02T21:00:23.473Z,94.00
2019-05-02T21:02:54.346Z,93.90
2019-05-02T21:05:28.606Z,93.80
2019-05-02T21:08:32.373Z,93.80
2019-05-02T21:11:02.566Z,93.70
2019-05-02T21:13:32.994Z,93.80
2019-05-02T21:16:03.364Z,93.80
2019-05-02T21:18:33.741Z,93.70
2019-05-02T21:21:04.213Z,93.80
2019-05-02T21:23:43.851Z,94.10
2019-05-02T21:26:06.505Z,94.10
2019-05-02T21:28:36.839Z,94.30
2019-05-02T21:31:07.536Z,94.30
2019-05-02T21:33:39.670Z,94.40
2019-05-02T21:36:11.786Z,94.60
2019-05-02T21:38:42.777Z,94.70
2019-05-02T21:41:13.835Z,95.10
2019-05-02T21:43:44.617Z,94.70
2019-05-02T21:46:14.913Z,94.80
2019-05-02T21:48:45.231Z,94.90
2019-05-02T21:51:47.043Z,95.40
2019-05-02T21:54:30.541Z,95.10
2019-05-02T21:57:13.807Z,94.90
2019-05-02T21:59:44.126Z,95.00
2019-05-02T22:02:14.736Z,94.70
2019-05-02T22:04:45.111Z,95.00
2019-05-02T22:07:15.682Z,95.10
2019-05-02T22:09:45.996Z,95.30
2019-05-02T22:12:17.396Z,95.30
2019-05-02T22:14:47.777Z,95.70
2019-05-02T22:17:18.169Z,95.90
2019-05-02T22:19:48.505Z,95.70
2019-05-02T22:22:18.910Z,95.90
2019-05-02T22:24:49.260Z,95.60
2019-05-02T22:27:21.659Z,95.40
2019-05-02T22:29:52.036Z,95.30
2019-05-02T22:32:23.445Z,95.00
2019-05-02T22:34:55.930Z,94.80
2019-05-02T22:37:26.315Z,94.80
2019-05-02T22:40:03.671Z,95.00
2019-05-02T22:42:32.816Z,95.10
2019-05-02T22:45:04.626Z,95.30
2019-05-02T22:47:35.309Z,95.60
2019-05-02T22:50:07.514Z,95.80
2019-05-02T22:52:37.836Z,95.80
2019-05-02T22:55:08.596Z,96.20
2019-05-02T22:57:41.499Z,96.50
2019-05-02T23:00:10.964Z,96.80
2019-05-02T23:02:41.880Z,97.30
2019-05-02T23:05:12.463Z,97.30
2019-05-02T23:07:42.810Z,97.80
2019-05-02T23:10:13.454Z,98.70
2019-05-02T23:12:43.821Z,98.60
2019-05-02T23:15:14.622Z,98.70
2019-05-02T23:17:44.921Z,98.80
2019-05-02T23:20:15.249Z,98.80
2019-05-02T23:22:45.579Z,98.70
2019-05-02T23:25:34.915Z,98.80
2019-05-02T23:28:09.732Z,98.90
2019-05-02T23:30:42.353Z,98.90
2019-05-02T23:33:12.986Z,98.90
2019-05-02T23:35:43.465Z,98.70
2019-05-02T23:38:13.789Z,99.00
2019-05-02T23:40:44.134Z,98.90
2019-05-02T23:43:14.495Z,99.00
2019-05-02T23:45:44.846Z,99.00
2019-05-02T23:48:15.165Z,98.80
2019-05-02T23:50:45.638Z,99.00
2019-05-02T23:53:15.944Z,98.80
2019-05-02T23:55:46.312Z,99.00
2019-05-02T23:58:16.622Z,98.80
